createdAt,value
2022-12-23T00:01:09.288Z,91923.53
2022-12-23T00:03:35.890Z,91922.75
2022-12-23T00:06:09.282Z,91939.25
2022-12-23T00:08:36.576Z,91922.44
2022-12-23T00:11:05.363Z,91921.91
2022-12-23T00:13:51.539Z,91925.88
2022-12-23T00:16:18.024Z,91924.56
2022-12-23T00:18:44.559Z,91919.53
2022-12-23T00:21:14.392Z,91935.50
2022-12-23T00:23:44.790Z,91920.03
2022-12-23T00:26:21.043Z,91914.25
2022-12-23T00:28:47.994Z,91929.44
2022-12-23T00:31:15.291Z,91921.06
2022-12-23T00:33:43.743Z,91933.09
2022-12-23T00:36:23.932Z,91935.19
2022-12-23T00:39:09.071Z,91932.81
2022-12-23T00:41:54.457Z,91924.66
2022-12-23T00:44:21.301Z,91930.44
2022-12-23T00:46:47.957Z,91919.72
2022-12-23T00:49:35.087Z,91932.31
2022-12-23T00:52:02.366Z,91950.13
2022-12-23T00:54:29.644Z,91936.78
2022-12-23T00:56:56.063Z,91938.34
2022-12-23T00:59:22.521Z,91945.66
2022-12-23T01:02:07.633Z,91943.03
2022-12-23T01:04:53.522Z,91952.97
2022-12-23T01:07:21.246Z,91946.13
2022-12-23T01:09:47.786Z,91941.91
2022-12-23T01:12:14.255Z,91952.88
2022-12-23T01:14:41.123Z,91947.38
2022-12-23T01:17:08.230Z,91943.94
2022-12-23T01:19:35.382Z,91950.22
2022-12-23T01:22:01.870Z,91952.28
2022-12-23T01:24:32.443Z,91951.25
2022-12-23T01:26:59.380Z,91963.28
2022-12-23T01:29:26.238Z,91969.03
2022-12-23T01:31:52.757Z,91960.69
2022-12-23T01:34:19.629Z,91969.84
2022-12-23T01:36:46.099Z,91971.19
2022-12-23T01:39:12.521Z,91967.25
2022-12-23T01:41:57.752Z,91971.94
2022-12-23T01:44:51.938Z,91972.75
2022-12-23T01:47:30.223Z,91970.13
2022-12-23T01:50:03.179Z,91970.69
2022-12-23T01:52:31.831Z,91964.13
2022-12-23T01:54:58.337Z,91980.13
2022-12-23T01:57:24.906Z,91986.41
2022-12-23T02:00:10.410Z,91990.06
2022-12-23T02:02:57.789Z,91980.63
2022-12-23T02:05:24.488Z,91999.00
2022-12-23T02:08:10.828Z,91986.13
2022-12-23T02:11:02.713Z,91992.66
2022-12-23T02:14:04.885Z,91992.13
2022-12-23T02:16:39.241Z,91994.47
2022-12-23T02:19:14.762Z,91985.81
2022-12-23T02:22:31.369Z,92004.91
2022-12-23T02:25:09.507Z,92004.66
2022-12-23T02:27:55.765Z,92004.91
2022-12-23T02:30:53.217Z,92004.91
2022-12-23T02:33:51.774Z,92021.16
2022-12-23T02:36:43.498Z,92004.91
2022-12-23T02:39:20.896Z,92019.81
2022-12-23T02:42:02.218Z,92004.63
2022-12-23T02:44:43.415Z,92007.75
2022-12-23T02:47:37.739Z,92006.66
2022-12-23T02:50:18.492Z,92016.38
2022-12-23T02:52:47.404Z,91999.28
2022-12-23T02:55:19.508Z,92001.91
2022-12-23T02:57:50.826Z,92013.47
2022-12-23T03:00:18.430Z,92038.09
2022-12-23T03:02:45.416Z,92011.88
2022-12-23T03:05:24.183Z,92021.34
2022-12-23T03:07:52.711Z,92017.44
2022-12-23T03:10:33.992Z,92020.00
2022-12-23T03:13:09.387Z,92027.63
2022-12-23T03:15:44.930Z,92038.09
2022-12-23T03:18:37.610Z,92034.94
2022-12-23T03:21:08.894Z,92032.31
2022-12-23T03:23:42.698Z,92038.56
2022-12-23T03:26:16.818Z,92048.56
2022-12-23T03:28:53.852Z,92048.03
2022-12-23T03:31:25.941Z,92049.59
2022-12-23T03:33:58.045Z,92047.56
2022-12-23T03:36:31.650Z,92044.66
2022-12-23T03:38:58.968Z,92045.97
2022-12-23T03:41:33.396Z,92056.47
2022-12-23T03:44:06.523Z,92043.88
2022-12-23T03:46:39.095Z,92041.78
2022-12-23T03:49:15.040Z,92050.16
2022-12-23T03:51:53.529Z,92055.09
2022-12-23T03:54:27.296Z,92043.31
2022-12-23T03:57:02.082Z,92034.16
2022-12-23T03:59:33.700Z,92031.28
2022-12-23T04:02:14.908Z,92029.19
2022-12-23T04:05:15.737Z,92037.81
2022-12-23T04:07:56.064Z,92031.25
2022-12-23T04:10:23.428Z,92046.97
2022-12-23T04:12:50.240Z,92048.00
2022-12-23T04:15:22.197Z,92052.94
2022-12-23T04:17:49.824Z,92054.81
2022-12-23T04:20:16.586Z,92036.50
2022-12-23T04:22:45.973Z,92045.63
2022-12-23T04:25:14.631Z,92045.38
2022-12-23T04:27:41.166Z,92049.06
2022-12-23T04:30:10.100Z,92058.69
2022-12-23T04:32:37.115Z,92049.00
2022-12-23T04:35:04.210Z,92061.56
2022-12-23T04:37:30.635Z,92064.47
2022-12-23T04:39:57.073Z,92058.41
2022-12-23T04:42:23.932Z,92047.44
2022-12-23T04:44:50.407Z,92046.13
2022-12-23T04:47:16.912Z,92060.50
2022-12-23T04:49:43.322Z,92058.66
2022-12-23T04:52:09.782Z,92077.84
2022-12-23T04:54:39.314Z,92072.06
2022-12-23T04:57:10.597Z,92073.13
2022-12-23T04:59:37.039Z,92066.56
2022-12-23T05:02:03.813Z,92065.22
2022-12-23T05:04:30.450Z,92063.09
2022-12-23T05:06:56.976Z,92075.69
2022-12-23T05:09:23.435Z,92060.75
2022-12-23T05:11:49.877Z,92061.03
2022-12-23T05:14:16.355Z,92066.56
2022-12-23T05:16:42.872Z,92046.13
2022-12-23T05:19:10.199Z,92061.06
2022-12-23T05:21:36.915Z,92051.63
2022-12-23T05:24:03.633Z,92052.16
2022-12-23T05:26:30.187Z,92050.03
2022-12-23T05:28:56.652Z,92051.09
2022-12-23T05:31:23.393Z,92048.41
2022-12-23T05:33:50.012Z,92046.38
2022-12-23T05:36:16.547Z,92053.44
2022-12-23T05:38:42.982Z,92054.72
2022-12-23T05:41:09.555Z,92053.72
2022-12-23T05:43:35.987Z,92069.94
2022-12-23T05:46:02.497Z,92066.25
2022-12-23T05:48:29.016Z,92065.19
2022-12-23T05:50:55.581Z,92064.44
2022-12-23T05:53:22.190Z,92070.72
2022-12-23T05:55:48.682Z,92085.13
2022-12-23T05:58:15.186Z,92077.75
2022-12-23T06:00:41.682Z,92081.91
2022-12-23T06:03:08.341Z,92085.59
2022-12-23T06:05:37.670Z,92083.78
2022-12-23T06:08:04.560Z,92084.03
2022-12-23T06:10:31.126Z,92087.16
2022-12-23T06:12:57.579Z,92087.75
2022-12-23T06:15:24.037Z,92083.56
2022-12-23T06:17:50.516Z,92078.84
2022-12-23T06:20:20.625Z,92085.66
2022-12-23T06:22:47.989Z,92082.75
2022-12-23T06:25:14.721Z,92072.53
2022-12-23T06:27:41.218Z,92064.16
2022-12-23T06:30:08.315Z,92060.47
2022-12-23T06:32:38.538Z,92055.22
2022-12-23T06:35:06.639Z,92068.09
2022-12-23T06:37:33.197Z,92065.19
2022-12-23T06:39:59.809Z,92072.00
2022-12-23T06:42:26.288Z,92066.78
2022-12-23T06:44:52.710Z,92074.13
2022-12-23T06:47:19.155Z,92079.88
2022-12-23T06:49:45.620Z,92082.28
2022-12-23T06:52:12.064Z,92084.63
2022-12-23T06:54:38.489Z,92089.88
2022-12-23T06:57:04.952Z,92087.78
2022-12-23T06:59:31.588Z,92090.16
2022-12-23T07:01:58.155Z,92100.41
2022-12-23T07:04:24.762Z,92095.16
2022-12-23T07:06:51.164Z,92102.25
2022-12-23T07:09:17.688Z,92089.41
2022-12-23T07:11:44.169Z,92101.44
2022-12-23T07:14:10.818Z,92093.28
2022-12-23T07:16:37.466Z,92092.78
2022-12-23T07:19:04.227Z,92093.00
2022-12-23T07:21:30.762Z,92098.25
2022-12-23T07:23:57.280Z,92101.41
2022-12-23T07:26:23.730Z,92115.53
2022-12-23T07:28:50.186Z,92116.09
2022-12-23T07:31:16.823Z,92129.19
2022-12-23T07:33:43.452Z,92134.44
2022-12-23T07:36:09.999Z,92129.13
2022-12-23T07:38:36.615Z,92142.75
2022-12-23T07:41:03.176Z,92149.00
2022-12-23T07:43:29.673Z,92152.13
2022-12-23T07:46:00.244Z,92141.59
2022-12-23T07:48:27.655Z,92142.31
2022-12-23T07:51:00.563Z,92142.31
2022-12-23T07:53:27.066Z,92135.22
2022-12-23T07:55:56.659Z,92132.03
2022-12-23T07:58:23.976Z,92139.34
2022-12-23T08:00:50.485Z,92130.94
2022-12-23T08:03:17.076Z,92133.59
2022-12-23T08:05:43.715Z,92132.53
2022-12-23T08:08:10.165Z,92126.22
2022-12-23T08:10:38.250Z,92130.91
2022-12-23T08:13:06.685Z,92136.13
2022-12-23T08:15:33.132Z,92133.53
2022-12-23T08:17:59.612Z,92150.06
2022-12-23T08:20:26.054Z,92151.91
2022-12-23T08:22:52.711Z,92162.16
2022-12-23T08:25:19.163Z,92164.53
2022-12-23T08:27:45.596Z,92169.78
2022-12-23T08:30:12.411Z,92170.34
2022-12-23T08:32:38.918Z,92166.09
2022-12-23T08:35:05.937Z,92172.25
2022-12-23T08:37:32.407Z,92168.81
2022-12-23T08:39:58.830Z,92165.94
2022-12-23T08:42:25.252Z,92165.69
2022-12-23T08:44:51.666Z,92176.03
2022-12-23T08:47:18.110Z,92171.81
2022-12-23T08:49:44.571Z,92177.59
2022-12-23T08:52:11.131Z,92173.69
2022-12-23T08:54:37.598Z,92183.41
2022-12-23T08:57:04.148Z,92182.38
2022-12-23T08:59:30.566Z,92177.34
2022-12-23T09:01:59.575Z,92176.75
2022-12-23T09:04:26.115Z,92173.84
2022-12-23T09:06:52.537Z,92175.91
2022-12-23T09:09:18.953Z,92180.13
2022-12-23T09:11:45.438Z,92188.78
2022-12-23T09:14:11.939Z,92177.41
2022-12-23T09:16:38.627Z,92175.19
2022-12-23T09:19:05.144Z,92170.88
2022-12-23T09:21:31.659Z,92168.97
2022-12-23T09:23:58.124Z,92168.66
2022-12-23T09:26:27.173Z,92167.28
2022-12-23T09:28:54.107Z,92166.41
2022-12-23T09:31:21.425Z,92171.47
2022-12-23T09:33:49.975Z,92172.97
2022-12-23T09:36:16.935Z,92160.06
2022-12-23T09:38:43.776Z,92149.09
2022-12-23T09:41:16.478Z,92155.47
2022-12-23T09:44:10.716Z,92148.00
2022-12-23T09:46:43.068Z,92147.91
2022-12-23T09:49:13.416Z,92147.53
2022-12-23T09:51:39.907Z,92133.59
2022-12-23T09:54:17.196Z,92146.84
2022-12-23T09:57:11.589Z,92158.63
2022-12-23T09:59:56.542Z,92156.25
2022-12-23T10:02:42.438Z,92156.66
2022-12-23T10:05:30.771Z,92149.75
2022-12-23T10:08:27.817Z,92146.78
2022-12-23T10:10:56.780Z,92133.28
2022-12-23T10:13:37.937Z,92132.22
2022-12-23T10:16:09.494Z,92128.03
2022-12-23T10:18:52.116Z,92130.59
2022-12-23T10:21:28.798Z,92127.53
2022-12-23T10:23:55.390Z,92139.47
2022-12-23T10:26:25.476Z,92138.88
2022-12-23T10:29:19.046Z,92124.94
2022-12-23T10:32:04.907Z,92134.94
2022-12-23T10:34:43.474Z,92123.88
2022-12-23T10:37:24.550Z,92124.59
2022-12-23T10:40:00.003Z,92130.41
2022-12-23T10:43:08.106Z,92104.22
2022-12-23T10:46:05.737Z,92090.16
2022-12-23T10:49:02.780Z,92096.28
2022-12-23T10:51:41.985Z,92089.84
2022-12-23T10:54:17.511Z,92095.66
2022-12-23T10:56:44.515Z,92091.47
2022-12-23T10:59:15.485Z,92087.69
2022-12-23T11:01:47.625Z,92080.66
2022-12-23T11:04:21.581Z,92078.03
2022-12-23T11:07:10.854Z,92095.41
2022-12-23T11:09:42.663Z,92078.03
2022-12-23T11:12:11.627Z,92076.31
2022-12-23T11:14:41.681Z,92081.06
2022-12-23T11:17:28.892Z,92076.63
2022-12-23T11:20:10.553Z,92070.34
2022-12-23T11:22:48.155Z,92055.81
2022-12-23T11:25:27.124Z,92056.81
2022-12-23T11:27:58.065Z,92061.16
2022-12-23T11:30:25.011Z,92051.72
2022-12-23T11:32:52.560Z,92052.78
2022-12-23T11:35:26.538Z,92051.47
2022-12-23T11:37:53.036Z,92046.94
2022-12-23T11:40:30.235Z,92035.72
2022-12-23T11:43:03.305Z,92026.84
2022-12-23T11:45:34.352Z,92026.53
2022-12-23T11:48:02.044Z,92026.25
2022-12-23T11:50:38.173Z,92024.69
2022-12-23T11:53:11.085Z,92029.69
2022-12-23T11:55:44.428Z,92026.03
2022-12-23T11:58:21.153Z,92030.22
2022-12-23T12:00:56.024Z,92022.22
2022-12-23T12:03:27.750Z,92017.59
2022-12-23T12:05:59.133Z,92013.25
2022-12-23T12:08:31.068Z,92014.06
2022-12-23T12:11:05.983Z,92004.25
2022-12-23T12:13:41.137Z,91998.34
2022-12-23T12:16:20.766Z,91997.06
2022-12-23T12:18:55.235Z,92000.91
2022-12-23T12:21:28.435Z,91999.13
2022-12-23T12:24:17.596Z,91996.34
2022-12-23T12:26:50.874Z,92000.06
2022-12-23T12:29:42.079Z,92003.16
2022-12-23T12:32:22.433Z,92008.66
2022-12-23T12:34:55.897Z,92007.09
2022-12-23T12:37:40.777Z,92003.47
2022-12-23T12:40:26.351Z,91997.00
2022-12-23T12:42:59.919Z,91992.81
2022-12-23T12:45:39.172Z,91998.84
2022-12-23T12:48:27.125Z,91993.31
2022-12-23T12:51:08.119Z,91998.06
2022-12-23T12:53:39.771Z,91983.28
2022-12-23T12:56:16.801Z,91977.66
2022-12-23T12:58:44.553Z,91965.28
2022-12-23T13:01:30.273Z,91965.72
2022-12-23T13:04:14.666Z,91965.38
2022-12-23T13:07:22.435Z,91956.72
2022-12-23T13:10:09.282Z,91936.66
2022-12-23T13:12:53.340Z,91951.09
2022-12-23T13:15:28.531Z,91950.69
2022-12-23T13:18:13.113Z,91945.13
2022-12-23T13:20:46.028Z,91940.72
2022-12-23T13:23:43.045Z,91944.72
2022-12-23T13:26:32.160Z,91948.53
2022-12-23T13:29:29.707Z,91959.97
2022-12-23T13:32:02.489Z,91947.91
2022-12-23T13:34:41.397Z,91965.25
2022-12-23T13:37:27.855Z,91951.38
2022-12-23T13:40:02.146Z,91944.78
2022-12-23T13:42:37.089Z,91949.97
2022-12-23T13:45:05.470Z,91945.28
2022-12-23T13:48:05.622Z,91951.66
2022-12-23T13:50:46.219Z,91955.00
2022-12-23T13:53:34.445Z,91942.09
2022-12-23T13:56:07.097Z,91939.16
2022-12-23T13:58:34.036Z,91939.44
2022-12-23T14:01:09.754Z,91943.06
2022-12-23T14:03:38.852Z,91950.03
2022-12-23T14:06:23.268Z,91945.91
2022-12-23T14:08:51.363Z,91964.94
2022-12-23T14:11:20.708Z,91953.84
2022-12-23T14:13:50.213Z,91942.34
2022-12-23T14:16:50.652Z,91950.16
2022-12-23T14:19:23.198Z,91956.41
2022-12-23T14:22:13.530Z,91940.22
2022-12-23T14:24:59.380Z,91937.09
2022-12-23T14:27:49.894Z,91933.91
2022-12-23T14:30:23.593Z,91943.69
2022-12-23T14:32:54.159Z,91941.31
2022-12-23T14:35:46.727Z,91949.16
2022-12-23T14:38:15.895Z,91963.13
2022-12-23T14:40:42.270Z,91957.66
2022-12-23T14:43:45.188Z,91973.41
2022-12-23T14:46:30.463Z,91963.94
2022-12-23T14:49:29.790Z,91974.00
2022-12-23T14:51:50.576Z,91971.44
2022-12-23T14:54:18.673Z,91972.56
2022-12-23T14:57:00.465Z,91976.78
2022-12-23T14:59:51.272Z,91969.97
2022-12-23T15:02:30.459Z,91963.09
2022-12-23T15:04:58.464Z,91964.38
2022-12-23T15:07:35.227Z,91965.72
2022-12-23T15:10:07.830Z,91965.19
2022-12-23T15:12:38.523Z,91983.06
2022-12-23T15:15:13.065Z,91979.31
2022-12-23T15:17:39.675Z,91987.47
2022-12-23T15:20:20.968Z,91980.16
2022-12-23T15:22:48.021Z,91967.84
2022-12-23T15:25:32.446Z,91982.34
2022-12-23T15:28:02.081Z,92018.38
2022-12-23T15:30:33.996Z,91992.41
2022-12-23T15:33:04.213Z,91979.00
2022-12-23T15:35:33.835Z,91995.84
2022-12-23T15:38:01.755Z,91989.28
2022-12-23T15:40:38.479Z,91993.19
2022-12-23T15:43:19.619Z,92011.59
2022-12-23T15:45:46.450Z,92004.25
2022-12-23T15:48:27.089Z,92008.47
2022-12-23T15:50:58.695Z,92013.72
2022-12-23T15:53:33.403Z,92038.72
2022-12-23T15:56:04.895Z,92035.84
2022-12-23T15:58:33.726Z,92042.72
2022-12-23T16:01:00.848Z,92033.28
2022-12-23T16:03:40.593Z,92024.56
2022-12-23T16:06:19.434Z,92049.72
2022-12-23T16:08:59.302Z,92048.38
2022-12-23T16:11:42.123Z,92041.00
2022-12-23T16:14:31.044Z,92017.41
2022-12-23T16:17:21.315Z,92032.34
2022-12-23T16:20:20.364Z,92039.94
2022-12-23T16:22:53.099Z,92040.47
2022-12-23T16:25:26.010Z,92055.47
2022-12-23T16:27:58.941Z,92044.16
2022-12-23T16:30:30.949Z,92044.84
2022-12-23T16:33:02.213Z,92042.00
2022-12-23T16:35:28.662Z,92060.91
2022-12-23T16:38:10.419Z,92056.16
2022-12-23T16:40:36.895Z,92058.78
2022-12-23T16:43:03.783Z,92054.09
2022-12-23T16:45:32.822Z,92076.13
2022-12-23T16:47:59.846Z,92034.13
2022-12-23T16:50:26.619Z,92040.38
2022-12-23T16:52:53.313Z,92074.81
2022-12-23T16:55:20.394Z,92054.09
2022-12-23T16:57:46.824Z,92034.91
2022-12-23T17:00:16.035Z,92033.84
2022-12-23T17:02:44.490Z,92037.53
2022-12-23T17:05:17.043Z,92040.47
2022-12-23T17:07:45.572Z,92028.94
2022-12-23T17:10:13.742Z,92023.66
2022-12-23T17:12:41.211Z,92020.53
2022-12-23T17:15:15.400Z,92032.03
2022-12-23T17:17:41.845Z,92035.22
2022-12-23T17:20:09.117Z,92041.44
2022-12-23T17:22:36.090Z,92029.91
2022-12-23T17:25:02.783Z,92020.72
2022-12-23T17:27:29.234Z,92035.72
2022-12-23T17:29:55.759Z,92040.94
2022-12-23T17:32:22.461Z,92043.81
2022-12-23T17:34:49.110Z,92052.44
2022-12-23T17:37:20.267Z,92042.22
2022-12-23T17:39:47.455Z,92066.16
2022-12-23T17:42:25.853Z,92046.72
2022-12-23T17:44:52.785Z,92044.91
2022-12-23T17:47:22.385Z,92051.22
2022-12-23T17:49:49.264Z,92073.06
2022-12-23T17:52:21.237Z,92056.28
2022-12-23T17:54:49.479Z,92052.59
2022-12-23T17:57:22.181Z,92050.28
2022-12-23T17:59:49.635Z,92057.03
2022-12-23T18:02:23.158Z,92041.03
2022-12-23T18:04:50.005Z,92041.34
2022-12-23T18:07:16.532Z,92028.72
2022-12-23T18:09:43.017Z,92031.34
2022-12-23T18:12:30.638Z,92020.34
2022-12-23T18:14:57.161Z,92042.66
2022-12-23T18:17:23.623Z,92039.22
2022-12-23T18:19:50.030Z,92060.44
2022-12-23T18:22:19.989Z,92054.72
2022-12-23T18:24:49.388Z,92056.03
2022-12-23T18:27:21.716Z,92055.19
2022-12-23T18:29:48.751Z,92055.97
2022-12-23T18:32:25.044Z,92053.91
2022-12-23T18:34:53.049Z,92061.22
2022-12-23T18:37:20.500Z,92058.88
2022-12-23T18:39:47.454Z,92055.19
2022-12-23T18:42:16.219Z,92080.13
2022-12-23T18:44:44.311Z,92094.31
2022-12-23T18:47:11.577Z,92069.84
2022-12-23T18:49:38.453Z,92075.88
2022-12-23T18:52:07.967Z,92069.88
2022-12-23T18:54:34.815Z,92089.59
2022-12-23T18:57:01.905Z,92110.78
2022-12-23T18:59:30.253Z,92085.03
2022-12-23T19:01:57.635Z,92093.97
2022-12-23T19:04:24.312Z,92076.38
2022-12-23T19:06:50.841Z,92099.22
2022-12-23T19:09:19.704Z,92120.78
2022-12-23T19:11:48.211Z,92117.13
2022-12-23T19:14:14.991Z,92101.34
2022-12-23T19:16:47.493Z,92106.59
2022-12-23T19:19:17.529Z,92126.56
2022-12-23T19:21:43.959Z,92124.50
2022-12-23T19:24:10.472Z,92092.78
2022-12-23T19:26:36.925Z,92082.00
2022-12-23T19:29:03.407Z,92088.34
2022-12-23T19:31:30.040Z,92093.00
2022-12-23T19:33:56.589Z,92088.84
2022-12-23T19:36:23.445Z,92117.22
2022-12-23T19:38:49.942Z,92120.41
2022-12-23T19:41:16.568Z,92118.03
2022-12-23T19:43:45.330Z,92121.78
2022-12-23T19:46:13.411Z,92144.13
2022-12-23T19:48:40.090Z,92128.38
2022-12-23T19:51:09.389Z,92139.91
2022-12-23T19:53:36.082Z,92146.72
2022-12-23T19:56:04.599Z,92138.34
2022-12-23T19:58:33.252Z,92153.06
2022-12-23T20:01:15.411Z,92175.16
2022-12-23T20:03:43.465Z,92165.69
2022-12-23T20:06:39.512Z,92183.75
2022-12-23T20:09:07.567Z,92178.50
2022-12-23T20:11:42.907Z,92170.38
2022-12-23T20:14:10.442Z,92188.00
2022-12-23T20:16:37.964Z,92185.09
2022-12-23T20:19:05.176Z,92184.84
2022-12-23T20:21:31.634Z,92195.59
2022-12-23T20:23:58.197Z,92206.66
2022-12-23T20:26:24.852Z,92207.97
2022-12-23T20:28:51.328Z,92203.78
2022-12-23T20:31:20.725Z,92219.25
2022-12-23T20:33:48.265Z,92217.16
2022-12-23T20:36:16.849Z,92213.47
2022-12-23T20:38:45.112Z,92206.09
2022-12-23T20:41:14.235Z,92214.75
2022-12-23T20:43:40.952Z,92212.41
2022-12-23T20:46:10.225Z,92217.91
2022-12-23T20:48:37.201Z,92221.34
2022-12-23T20:51:24.365Z,92235.03
2022-12-23T20:53:53.045Z,92231.91
2022-12-23T20:56:21.100Z,92264.97
2022-12-23T20:59:02.272Z,92250.53
2022-12-23T21:01:39.131Z,92256.06
2022-12-23T21:04:16.088Z,92265.00
2022-12-23T21:06:43.706Z,92252.97
2022-12-23T21:09:12.292Z,92231.22
2022-12-23T21:11:41.409Z,92243.06
2022-12-23T21:14:08.103Z,92248.84
2022-12-23T21:16:38.249Z,92264.03
2022-12-23T21:19:06.590Z,92243.34
2022-12-23T21:21:33.489Z,92227.34
2022-12-23T21:24:04.295Z,92231.81
2022-12-23T21:26:32.958Z,92240.75
2022-12-23T21:29:00.897Z,92263.03
2022-12-23T21:31:29.684Z,92261.47
2022-12-23T21:33:56.761Z,92252.81
2022-12-23T21:36:26.070Z,92270.38
2022-12-23T21:38:52.650Z,92259.09
2022-12-23T21:41:22.327Z,92279.03
2022-12-23T21:43:49.552Z,92268.28
2022-12-23T21:46:18.935Z,92287.69
2022-12-23T21:48:45.954Z,92296.06
2022-12-23T21:51:16.986Z,92284.78
2022-12-23T21:53:44.983Z,92285.03
2022-12-23T21:56:16.865Z,92291.88
2022-12-23T21:58:44.019Z,92294.75
2022-12-23T22:01:13.639Z,92273.81
2022-12-23T22:03:40.596Z,92297.13
2022-12-23T22:06:10.822Z,92282.94
2022-12-23T22:08:38.650Z,92297.59
2022-12-23T22:11:13.884Z,92301.56
2022-12-23T22:13:41.539Z,92303.91
2022-12-23T22:16:13.775Z,92306.50
2022-12-23T22:18:41.109Z,92307.53
2022-12-23T22:21:16.829Z,92303.34
2022-12-23T22:23:43.800Z,92300.97
2022-12-23T22:26:17.482Z,92304.09
2022-12-23T22:28:46.955Z,92304.34
2022-12-23T22:31:17.988Z,92299.66
2022-12-23T22:33:45.281Z,92313.53
2022-12-23T22:36:13.268Z,92324.00
2022-12-23T22:38:40.497Z,92324.25
2022-12-23T22:41:07.998Z,92323.19
2022-12-23T22:43:34.761Z,92319.00
2022-12-23T22:46:02.404Z,92303.84
2022-12-23T22:48:30.339Z,92290.75
2022-12-23T22:51:10.792Z,92283.91
2022-12-23T22:53:37.562Z,92279.19
2022-12-23T22:56:05.805Z,92275.00
2022-12-23T22:58:33.585Z,92286.50
2022-12-23T23:01:00.806Z,92283.91
2022-12-23T23:03:28.785Z,92284.19
2022-12-23T23:05:56.418Z,92270.81
2022-12-23T23:08:24.051Z,92284.94
2022-12-23T23:10:51.710Z,92285.47
2022-12-23T23:13:18.579Z,92288.59
2022-12-23T23:15:47.713Z,92289.09
2022-12-23T23:18:14.862Z,92283.31
2022-12-23T23:20:41.660Z,92292.75
2022-12-23T23:23:08.206Z,92292.72
2022-12-23T23:25:34.750Z,92310.75
2022-12-23T23:28:01.268Z,92308.91
2022-12-23T23:30:27.726Z,92322.47
2022-12-23T23:32:54.183Z,92315.16
2022-12-23T23:35:20.595Z,92311.78
2022-12-23T23:37:47.035Z,92308.13
2022-12-23T23:40:13.516Z,92305.22
2022-12-23T23:42:40.007Z,92306.56
2022-12-23T23:45:07.001Z,92304.19
2022-12-23T23:47:34.724Z,92310.16
2022-12-23T23:50:01.991Z,92309.69
2022-12-23T23:52:29.024Z,92306.78
2022-12-23T23:54:55.592Z,92314.09
2022-12-23T23:57:22.570Z,92324.03
2022-12-23T23:59:49.153Z,92331.88
